Sanford, FL (32771)

10:34 PM EDT on April 26, 2015 (GMT -0400)
Kaywood Subdivision | | Change Station
CLOSE
Current Station
Personal Weather Station
Location: Sanford, FL
Elevation: 59 ft
Nearby Weather Stations

Elev 59 ft 28.79 °N, 81.33 °W | Updated 7 seconds ago

Partly Cloudy
Partly Cloudy
80.5 °F
Feels Like 85 °F
N
1.0
Wind Variable Wind from WSW
Gusts 9.0 mph

Today
High -- | Low -- °F
--% Chance of Precip.
Yesterday
High -- | Low -- °F
Precip. -- in
6:48 AM 7:57 PM
First Quarter, 60% visible
Pressure 29.75 in
Visibility 10.0 miles
Clouds Few 2300 ft
Few 3800 ft
Heat Index 85 °F
Dew Point 74 °F
Humidity 81%
Rainfall 0.00 in
Snow Depth Not available.
UV 0 out of 12
Pollen 9.50 out of 12
Air Quality Not available.
Flu Activity Local Activity
METAR KSFB 270153Z 26012KT 10SM FEW023 FEW038 27/23 A2975 RMK AO2 SLP072 T02720228

More Conditions Fewer Conditions

Pressure 29.75 in
Visibility 10.0 miles
Clouds Few 2300 ft
Few 3800 ft
Heat Index 85 °F
Dew Point 74 °F
Humidity 81%
Rainfall 0.00 in
Snow Depth Not available.
UV 0 out of 12
Pollen 9.50 out of 12
Air Quality Not available.
Flu Activity Local Activity
METAR KSFB 270153Z 26012KT 10SM FEW023 FEW038 27/23 A2975 RMK AO2 SLP072 T02720228

More Conditions Fewer Conditions

The full scope of the disaster following a powerful 7.8-magnitude earthquake in Nepal may not come into view for days, but global charities are already sending emergency aid. Click to see how you can help.
Nowcast | as of 8:20 PM EDT on April 26, 2015

An upper level disturbance across the northeast Gulf of Mexico will spread cloudiness across northern portions of east central Florida through late evening. A few showers will be possible from lake to Volusia County. Partly cloudy and warm conditions are expected for Okeechobee County and the Treasure Coast with temperatures in the 80s. Additional details...including graphics are available online at: http://www.Srh.NOAA.Gov/mlb/blog.Php

×

10-Day Weather Forecast

Almanac

Astronomy

Apr. 26, 2015 Rise Set
Actual Time
Civil Twilight
Nautical Twilight
Astronomical Twilight
Moon
Length of Visible Light
Length of Day
Tomorrow will be .
, % of the Moon is Illuminated

Today's Extremes

State Highs State Lows

Community

WunderPhotos

Upload Photos

1,817,204 photos uploaded!

WunderBlogs® & News

Nearby

Air Quality

  Air Quality AQ Index Pollutant
Not available.

Snow Depth

Station Depth Elevation

Earthquake Activity

City Distance Mag. Time & Date
Minimum magnitude displayed is 2.5.

Coastal Water Temperatures

Place Temperature

Stations

Nearby Weather Stations

Station Location Temp. Windchill Dew Point Humidity Wind Precip. Elev Updated Type